Terminal Aerodrome Forecast
Issued by NWS

Home | Current Version | Previous Version | Text Only | Print | Product List | Glossary On
Versions: 1 2 3 4 5 6 7 8 9 10 11 12
441
FTUS45 KGGW 282320
TAFSDY
TAF
KSDY 282320Z 2900/2924 31008KT P6SM SCT130
     FM290500 35006KT P6SM SCT140
     FM291500 04006KT P6SM SCT130=

USA.gov is the U.S. government's official web portal to all federal, state and local government web resources and services.